Time;durP1;ratioP1;P1;durP2;ratioP2;P2;SDS_P1;SDS_P2;PMS_P1;PMS_P2;Temp;Humidity;BMP_temperature;BMP_pressure;BME280_temperature;BME280_humidity;BME280_pressure;Samples;Min_cycle;Max_cycle;Signal;HPM_P1;HPM_P2
2021/04/17 00:01:53;;;;;;;2.85;2.53;;;8.90;59.30;;;;;;5053141;28;20037;-60
2021/04/17 00:04:19;;;;;;;4.22;2.67;;;8.90;59.40;;;;;;5070523;28;20025;-61
2021/04/17 00:06:44;;;;;;;3.55;2.70;;;8.90;60.00;;;;;;5068431;28;20395;-61
2021/04/17 00:09:15;;;;;;;3.50;2.22;;;8.90;59.50;;;;;;5069219;28;20032;-61
2021/04/17 00:11:42;;;;;;;2.90;2.60;;;8.90;59.50;;;;;;5066792;28;20115;-61
2021/04/17 00:14:10;;;;;;;2.60;2.30;;;8.90;59.50;;;;;;5049818;28;20029;-61
2021/04/17 00:16:36;;;;;;;3.00;2.42;;;8.90;59.50;;;;;;5069771;28;20456;-61
2021/04/17 00:19:01;;;;;;;2.92;2.60;;;8.80;59.60;;;;;;5068436;28;20025;-61
2021/04/17 00:21:27;;;;;;;2.92;2.40;;;8.80;59.60;;;;;;5056601;28;20021;-61
2021/04/17 00:23:52;;;;;;;3.45;2.47;;;8.80;59.70;;;;;;5072370;28;20024;-61
2021/04/17 00:26:18;;;;;;;2.55;2.35;;;8.80;59.60;;;;;;5073097;28;20033;-61
2021/04/17 00:28:43;;;;;;;2.97;2.50;;;8.70;59.80;;;;;;5048117;28;20396;-62
2021/04/17 00:31:09;;;;;;;3.38;2.42;;;8.70;59.80;;;;;;5071832;28;20379;-61
2021/04/17 00:33:34;;;;;;;2.78;2.45;;;8.70;59.80;;;;;;5069318;28;20066;-61
2021/04/17 00:36:00;;;;;;;3.47;2.72;;;8.70;59.90;;;;;;5068262;28;20036;-61
2021/04/17 00:38:27;;;;;;;2.92;2.58;;;8.70;60.00;;;;;;5071076;28;20023;-61
2021/04/17 00:40:53;;;;;;;2.67;2.47;;;8.60;60.00;;;;;;5058917;28;20037;-61
2021/04/17 00:43:18;;;;;;;2.50;2.10;;;8.60;60.00;;;;;;5068469;28;20035;-61
2021/04/17 00:45:44;;;;;;;2.67;2.40;;;8.60;60.00;;;;;;5064873;28;20049;-61
2021/04/17 00:48:11;;;;;;;4.40;2.42;;;8.60;60.10;;;;;;5031168;28;20025;-61
2021/04/17 00:50:37;;;;;;;2.90;2.58;;;8.60;60.10;;;;;;5030123;28;20083;-61
2021/04/17 00:53:02;;;;;;;4.85;2.63;;;8.50;60.10;;;;;;5046819;28;20044;-61
2021/04/17 00:55:28;;;;;;;4.05;2.50;;;8.50;60.20;;;;;;5029504;28;20302;-61
2021/04/17 00:57:53;;;;;;;2.85;2.45;;;8.50;60.20;;;;;;5032502;28;20021;-61
2021/04/17 01:00:19;;;;;;;3.03;2.65;;;8.50;60.20;;;;;;5039178;28;20052;-61
2021/04/17 01:03:06;;;;;;;2.50;2.30;;;8.50;60.40;;;;;;5027494;28;20045;-61
2021/04/17 01:05:32;;;;;;;2.78;2.45;;;8.50;60.40;;;;;;5031064;28;20075;-61
2021/04/17 01:07:58;;;;;;;3.47;2.53;;;8.50;60.50;;;;;;5031288;28;20060;-61
2021/04/17 01:10:43;;;;;;;2.72;2.42;;;8.40;60.40;;;;;;5032226;28;20231;-61
2021/04/17 01:13:09;;;;;;;2.85;2.60;;;8.40;60.50;;;;;;5034820;28;20028;-61
2021/04/17 01:15:35;;;;;;;3.15;2.83;;;8.40;60.60;;;;;;5034529;28;20025;-61
2021/04/17 01:18:00;;;;;;;3.50;2.20;;;8.40;60.60;;;;;;5032375;28;20492;-61
2021/04/17 01:20:41;;;;;;;3.13;2.60;;;8.30;60.60;;;;;;5033246;28;20087;-61
2021/04/17 01:23:28;;;;;;;3.30;2.67;;;8.30;60.70;;;;;;5027843;28;20021;-62
2021/04/17 01:25:53;;;;;;;4.28;3.10;;;8.30;60.70;;;;;;5034771;28;20028;-61
2021/04/17 01:28:20;;;;;;;2.83;2.60;;;8.30;60.90;;;;;;5052913;28;20042;-61
2021/04/17 01:30:45;;;;;;;11.00;3.17;;;8.30;60.70;;;;;;5032481;28;20021;-60
2021/04/17 01:33:11;;;;;;;3.67;2.88;;;8.20;60.90;;;;;;5049382;28;20466;-61
2021/04/17 01:35:37;;;;;;;2.65;2.42;;;8.20;60.90;;;;;;5050502;28;20032;-61
2021/04/17 01:38:17;;;;;;;2.85;2.60;;;8.20;61.00;;;;;;5023298;28;20021;-61
2021/04/17 01:40:44;;;;;;;4.28;3.05;;;8.20;61.10;;;;;;5003610;28;20032;-60
2021/04/17 01:43:10;;;;;;;4.22;2.78;;;8.20;60.90;;;;;;5023713;28;20376;-60
2021/04/17 01:45:35;;;;;;;4.85;2.97;;;8.20;61.10;;;;;;5020094;28;20049;-61
2021/04/17 01:48:01;;;;;;;3.00;2.80;;;8.20;61.20;;;;;;5075437;28;20039;-61
2021/04/17 01:50:28;;;;;;;4.18;3.30;;;8.10;61.20;;;;;;5069579;28;20025;-61
2021/04/17 01:52:54;;;;;;;3.65;3.17;;;8.10;61.30;;;;;;5063179;28;20025;-61
2021/04/17 01:55:19;;;;;;;3.15;2.75;;;8.10;61.40;;;;;;5069956;28;20032;-61
2021/04/17 01:57:45;;;;;;;4.38;3.20;;;8.10;61.30;;;;;;5068407;28;20032;-61
2021/04/17 02:00:11;;;;;;;3.85;3.10;;;8.10;61.50;;;;;;5052090;28;20120;-62
2021/04/17 02:02:36;;;;;;;3.85;3.15;;;8.10;61.50;;;;;;5074016;28;20033;-61
2021/04/17 02:05:02;;;;;;;3.40;3.10;;;8.00;61.40;;;;;;5070927;28;20033;-61
2021/04/17 02:07:28;;;;;;;4.28;3.15;;;8.00;61.50;;;;;;5072567;28;20029;-61
2021/04/17 02:09:53;;;;;;;3.97;3.08;;;8.00;61.50;;;;;;5070477;28;20039;-61
2021/04/17 02:12:19;;;;;;;3.17;2.83;;;8.00;61.50;;;;;;5076800;28;20036;-61
2021/04/17 02:14:44;;;;;;;3.17;2.80;;;8.00;61.60;;;;;;5069643;28;20374;-61
2021/04/17 02:17:28;;;;;;;3.95;3.08;;;8.00;61.60;;;;;;5067356;28;20024;-61
2021/04/17 02:20:09;;;;;;;4.15;2.95;;;7.90;61.60;;;;;;5060347;28;20115;-61
2021/04/17 02:22:36;;;;;;;4.30;3.35;;;7.90;61.60;;;;;;5069619;28;20032;-61
2021/04/17 02:25:03;;;;;;;3.28;2.80;;;7.90;61.90;;;;;;5075124;28;20046;-61
2021/04/17 02:27:28;;;;;;;4.97;3.40;;;7.90;61.70;;;;;;5081731;28;20269;-61
2021/04/17 02:29:54;;;;;;;4.65;2.85;;;7.90;61.90;;;;;;5054851;28;20433;-61
2021/04/17 02:32:20;;;;;;;3.40;3.10;;;7.90;61.90;;;;;;5076997;28;20025;-61
2021/04/17 02:34:45;;;;;;;3.92;3.50;;;7.80;61.90;;;;;;5047398;28;20434;-61
2021/04/17 02:37:11;;;;;;;3.97;3.33;;;7.80;61.90;;;;;;5081668;28;20032;-61
2021/04/17 02:39:37;;;;;;;3.65;3.28;;;7.80;62.10;;;;;;5069241;28;20024;-61
2021/04/17 02:42:02;;;;;;;3.38;3.08;;;7.80;62.10;;;;;;5081098;28;20028;-61
2021/04/17 02:44:28;;;;;;;3.20;2.90;;;7.80;62.20;;;;;;5070746;28;20550;-61
2021/04/17 02:46:53;;;;;;;4.28;3.45;;;7.70;62.10;;;;;;5069305;28;20056;-61
2021/04/17 02:49:19;;;;;;;4.18;3.45;;;7.70;62.30;;;;;;5075430;28;20028;-61
2021/04/17 02:51:44;;;;;;;3.78;3.35;;;7.70;62.40;;;;;;5077736;28;20036;-61
2021/04/17 02:54:10;;;;;;;4.30;3.75;;;7.70;62.40;;;;;;5071518;28;20427;-61
2021/04/17 02:56:36;;;;;;;3.58;3.13;;;7.60;62.60;;;;;;5066523;28;20025;-61
2021/04/17 02:59:01;;;;;;;3.60;3.30;;;7.60;62.40;;;;;;5075232;28;20024;-61
2021/04/17 03:01:27;;;;;;;4.63;3.65;;;7.60;62.50;;;;;;5080125;28;20032;-61
2021/04/17 03:03:52;;;;;;;4.55;3.85;;;7.60;62.60;;;;;;5064703;28;20036;-61
2021/04/17 03:06:18;;;;;;;3.90;3.50;;;7.60;62.60;;;;;;5067618;28;20028;-61
2021/04/17 03:08:43;;;;;;;3.80;3.42;;;7.60;62.60;;;;;;5066867;28;20025;-61
2021/04/17 03:11:09;;;;;;;4.15;3.47;;;7.60;62.70;;;;;;5076870;28;20029;-61
2021/04/17 03:13:34;;;;;;;5.82;3.60;;;7.60;62.70;;;;;;5073251;28;20424;-61
2021/04/17 03:16:00;;;;;;;3.47;3.17;;;7.60;62.60;;;;;;5071271;28;20032;-61
2021/04/17 03:18:25;;;;;;;4.30;3.90;;;7.50;62.80;;;;;;5074567;28;20488;-61
2021/04/17 03:20:51;;;;;;;5.05;4.25;;;7.50;63.10;;;;;;5058928;28;20033;-61
2021/04/17 03:23:16;;;;;;;4.18;3.78;;;7.50;63.00;;;;;;5054334;28;20032;-61
2021/04/17 03:25:42;;;;;;;5.20;4.18;;;7.50;62.90;;;;;;5061828;28;20036;-61
2021/04/17 03:28:08;;;;;;;4.30;3.22;;;7.50;63.00;;;;;;5080789;28;20025;-61
2021/04/17 03:30:33;;;;;;;4.65;4.13;;;7.40;63.00;;;;;;5077958;28;20506;-61
2021/04/17 03:33:00;;;;;;;3.90;3.50;;;7.50;63.10;;;;;;5081114;28;20096;-61
2021/04/17 03:35:25;;;;;;;4.07;3.67;;;7.50;63.00;;;;;;5061236;28;20556;-61
2021/04/17 03:37:51;;;;;;;4.45;4.05;;;7.40;63.00;;;;;;5041106;28;20040;-60
2021/04/17 03:40:16;;;;;;;4.25;3.85;;;7.40;63.30;;;;;;5089287;28;20033;-61
2021/04/17 03:42:42;;;;;;;4.95;3.90;;;7.40;63.10;;;;;;5083621;28;20039;-61
2021/04/17 03:45:08;;;;;;;4.97;4.40;;;7.40;63.20;;;;;;5058901;28;20174;-61
2021/04/17 03:47:34;;;;;;;4.35;3.83;;;7.40;63.30;;;;;;5014223;28;20021;-61
2021/04/17 03:50:00;;;;;;;4.68;3.85;;;7.30;63.30;;;;;;5014058;28;20254;-61
2021/04/17 03:52:26;;;;;;;4.82;4.10;;;7.30;63.30;;;;;;5040767;28;20475;-61
2021/04/17 03:54:51;;;;;;;5.00;4.47;;;7.30;63.40;;;;;;5039144;28;20040;-61
2021/04/17 03:57:17;;;;;;;5.68;4.53;;;7.30;63.40;;;;;;5056850;28;20484;-61
2021/04/17 03:59:42;;;;;;;5.00;4.30;;;7.30;63.60;;;;;;5051616;28;20041;-61
2021/04/17 04:02:08;;;;;;;6.10;4.07;;;7.30;63.50;;;;;;5048557;28;20024;-61
2021/04/17 04:04:33;;;;;;;5.38;4.75;;;7.30;63.50;;;;;;5056011;28;20025;-61
2021/04/17 04:06:59;;;;;;;5.57;4.43;;;7.30;63.70;;;;;;5049614;28;20353;-61
2021/04/17 04:09:24;;;;;;;4.70;4.30;;;7.30;63.60;;;;;;5047549;28;20024;-61
2021/04/17 04:11:50;;;;;;;5.32;4.57;;;7.30;63.60;;;;;;5031456;28;20066;-61
2021/04/17 04:14:15;;;;;;;5.03;4.53;;;7.20;63.60;;;;;;5056071;28;20024;-61
2021/04/17 04:16:41;;;;;;;6.72;4.65;;;7.20;63.80;;;;;;5033758;28;20396;-61
2021/04/17 04:19:06;;;;;;;5.25;4.75;;;7.30;63.90;;;;;;5048256;28;20479;-61
2021/04/17 04:21:32;;;;;;;5.30;4.60;;;7.20;63.70;;;;;;5046686;28;20114;-61
2021/04/17 04:23:57;;;;;;;6.05;5.30;;;7.20;64.00;;;;;;5040825;28;20024;-61
2021/04/17 04:26:23;;;;;;;5.20;4.65;;;7.20;63.80;;;;;;5055112;28;20025;-61
2021/04/17 04:28:49;;;;;;;8.15;4.97;;;7.20;64.00;;;;;;5034721;28;20026;-61
2021/04/17 04:31:14;;;;;;;5.65;4.70;;;7.20;63.90;;;;;;5028184;28;20033;-61
2021/04/17 04:33:40;;;;;;;4.95;4.45;;;7.20;64.10;;;;;;5016262;28;20516;-61
2021/04/17 04:36:05;;;;;;;5.45;4.72;;;7.20;64.00;;;;;;5053730;28;20045;-61
2021/04/17 04:38:31;;;;;;;5.45;4.78;;;7.20;64.00;;;;;;5012621;28;20033;-61
2021/04/17 04:40:58;;;;;;;5.57;4.97;;;7.20;64.10;;;;;;5032546;28;20029;-61
2021/04/17 04:43:23;;;;;;;6.10;5.18;;;7.10;64.10;;;;;;5029955;28;20031;-61
2021/04/17 04:45:49;;;;;;;7.03;5.72;;;7.10;64.20;;;;;;5042983;28;20119;-61
2021/04/17 04:48:14;;;;;;;5.70;4.60;;;7.10;64.10;;;;;;5067779;28;20360;-61
2021/04/17 04:50:40;;;;;;;5.75;5.07;;;7.20;64.20;;;;;;5071251;28;20108;-60
2021/04/17 04:53:06;;;;;;;5.05;4.60;;;7.10;64.20;;;;;;5058414;28;20036;-61
2021/04/17 04:55:31;;;;;;;6.05;5.45;;;7.10;64.20;;;;;;5076322;28;20234;-61
2021/04/17 04:57:57;;;;;;;7.03;6.18;;;7.10;64.20;;;;;;5052389;28;20067;-61
2021/04/17 05:00:23;;;;;;;6.63;5.90;;;7.10;64.30;;;;;;5056520;28;20114;-61
2021/04/17 05:02:48;;;;;;;6.00;5.40;;;7.10;64.40;;;;;;5069778;28;20036;-61
2021/04/17 05:05:14;;;;;;;6.72;5.75;;;7.10;64.30;;;;;;5066752;28;20028;-61
2021/04/17 05:07:40;;;;;;;6.00;5.40;;;7.10;64.30;;;;;;5071714;28;20051;-61
2021/04/17 05:10:06;;;;;;;6.13;5.53;;;7.10;64.40;;;;;;5074885;28;20369;-61
2021/04/17 05:12:32;;;;;;;6.75;6.05;;;7.10;64.30;;;;;;5075532;28;20468;-61
2021/04/17 05:14:57;;;;;;;5.97;5.45;;;7.10;64.30;;;;;;5066498;28;20040;-61
2021/04/17 05:17:23;;;;;;;6.88;5.47;;;7.10;64.40;;;;;;5067041;28;20035;-61
2021/04/17 05:19:48;;;;;;;7.25;6.40;;;7.10;64.40;;;;;;5071470;28;20035;-61
2021/04/17 05:22:14;;;;;;;6.95;6.25;;;7.10;64.50;;;;;;5065422;28;20051;-61
2021/04/17 05:24:39;;;;;;;6.75;5.97;;;7.10;64.60;;;;;;5078584;28;20036;-61
2021/04/17 05:27:05;;;;;;;7.00;6.30;;;7.10;64.50;;;;;;5073318;28;20048;-61
2021/04/17 05:29:30;;;;;;;7.45;6.75;;;7.10;64.50;;;;;;5069413;28;20471;-61
2021/04/17 05:31:56;;;;;;;6.53;5.85;;;7.10;64.50;;;;;;5071492;28;20439;-61
2021/04/17 05:34:21;;;;;;;6.70;6.10;;;7.10;64.60;;;;;;5075502;28;20360;-61
2021/04/17 05:36:47;;;;;;;7.03;6.30;;;7.10;64.60;;;;;;5075996;28;20540;-61
2021/04/17 05:39:12;;;;;;;7.32;6.63;;;7.10;64.60;;;;;;5068032;28;20031;-61
2021/04/17 05:41:38;;;;;;;7.28;6.57;;;7.10;64.60;;;;;;5070510;28;20376;-61
2021/04/17 05:44:10;;;;;;;8.07;6.68;;;7.10;64.60;;;;;;5070003;28;20111;-61
2021/04/17 05:46:39;;;;;;;8.57;6.90;;;7.10;64.80;;;;;;5070281;28;20381;-61
2021/04/17 05:49:05;;;;;;;7.90;6.57;;;6.80;64.60;;;;;;5077334;28;20100;-61
2021/04/17 05:51:32;;;;;;;7.20;6.50;;;7.10;64.80;;;;;;5045573;28;20104;-61
2021/04/17 05:53:58;;;;;;;8.52;6.85;;;7.10;64.80;;;;;;5074127;28;20267;-61
2021/04/17 05:56:23;;;;;;;7.90;7.10;;;7.10;64.80;;;;;;5057067;28;20028;-61
2021/04/17 05:58:49;;;;;;;8.05;6.95;;;7.10;64.70;;;;;;5073021;28;20502;-61
2021/04/17 06:01:14;;;;;;;7.53;6.82;;;7.10;64.60;;;;;;5072860;28;20047;-61
2021/04/17 06:03:40;;;;;;;7.32;6.53;;;7.20;64.60;;;;;;5073882;28;20423;-61
2021/04/17 06:06:05;;;;;;;8.52;7.63;;;7.10;64.70;;;;;;5064660;28;20045;-60
2021/04/17 06:08:31;;;;;;;8.18;7.38;;;7.10;64.80;;;;;;5076937;28;20029;-61
2021/04/17 06:10:56;;;;;;;10.02;7.82;;;7.10;64.90;;;;;;5076824;28;20020;-61
2021/04/17 06:13:22;;;;;;;8.60;7.78;;;7.10;65.00;;;;;;5060516;28;20025;-61
2021/04/17 06:15:47;;;;;;;7.68;6.90;;;7.10;64.90;;;;;;5064463;28;20017;-61
2021/04/17 06:18:13;;;;;;;8.07;7.25;;;7.10;64.90;;;;;;5073101;28;20519;-60
2021/04/17 06:20:38;;;;;;;7.97;7.18;;;7.20;64.80;;;;;;5073496;28;20116;-61
2021/04/17 06:23:04;;;;;;;9.55;8.55;;;7.20;64.70;;;;;;5064458;28;20078;-61
2021/04/17 06:25:29;;;;;;;9.25;8.18;;;7.10;64.80;;;;;;5070190;28;20403;-61
2021/04/17 06:27:55;;;;;;;8.13;7.32;;;7.20;64.90;;;;;;5076203;28;20085;-61
2021/04/17 06:30:21;;;;;;;10.93;8.23;;;7.20;64.80;;;;;;5066605;28;20340;-63
2021/04/17 06:32:46;;;;;;;9.38;8.40;;;7.20;64.80;;;;;;5074007;28;20033;-61
2021/04/17 06:35:12;;;;;;;9.60;8.60;;;7.20;64.90;;;;;;5067844;28;20017;-60
2021/04/17 06:37:38;;;;;;;10.00;9.00;;;7.20;65.00;;;;;;5072681;28;20032;-61
2021/04/17 06:40:04;;;;;;;9.43;8.48;;;7.20;64.90;;;;;;5070963;28;20384;-60
2021/04/17 06:42:30;;;;;;;10.13;9.05;;;7.20;65.10;;;;;;5076458;28;20440;-61
2021/04/17 06:44:55;;;;;;;9.77;8.73;;;7.20;65.00;;;;;;5067630;28;20086;-59
2021/04/17 06:47:21;;;;;;;10.70;9.20;;;7.30;65.00;;;;;;5029792;28;20425;-60
2021/04/17 06:49:46;;;;;;;10.00;9.00;;;7.30;65.10;;;;;;5035309;28;20024;-61
2021/04/17 06:52:12;;;;;;;9.68;8.73;;;7.30;65.10;;;;;;5054147;28;20086;-61
2021/04/17 06:54:38;;;;;;;10.32;8.63;;;7.30;65.10;;;;;;5036548;28;20117;-60
2021/04/17 06:57:04;;;;;;;8.98;8.07;;;7.30;65.10;;;;;;4998423;28;20105;-61
2021/04/17 06:59:31;;;;;;;9.63;8.63;;;7.10;64.80;;;;;;5022199;28;20033;-60
2021/04/17 07:01:57;;;;;;;10.95;9.48;;;7.30;64.90;;;;;;5034963;28;20063;-61
2021/04/17 07:04:23;;;;;;;11.55;10.35;;;7.40;65.60;;;;;;5025512;28;20029;-60
2021/04/17 07:06:48;;;;;;;13.20;11.32;;;7.40;65.20;;;;;;5040386;28;20036;-61
2021/04/17 07:09:14;;;;;;;12.88;11.50;;;7.40;65.50;;;;;;5031759;28;20488;-61
2021/04/17 07:11:39;;;;;;;11.93;10.70;;;7.40;65.80;;;;;;5034121;28;20480;-60
2021/04/17 07:14:15;;;;;;;12.95;11.65;;;7.40;65.90;;;;;;5014641;28;20041;-61
2021/04/17 07:17:01;;;;;;;13.00;11.60;;;7.40;65.90;;;;;;5026037;28;20055;-60
2021/04/17 07:19:46;;;;;;;13.43;11.88;;;7.50;66.30;;;;;;5039717;28;20024;-61
2021/04/17 07:22:24;;;;;;;14.10;12.67;;;7.40;66.50;;;;;;5043455;28;20051;-60
2021/04/17 07:24:55;;;;;;;13.93;12.52;;;7.40;66.70;;;;;;5041595;28;20040;-61
2021/04/17 07:27:50;;;;;;;13.35;11.98;;;7.50;67.00;;;;;;5015082;28;20458;-61
2021/04/17 07:30:16;;;;;;;14.07;12.68;;;7.50;67.00;;;;;;5017829;28;20097;-60
2021/04/17 07:32:42;;;;;;;14.90;13.30;;;7.50;67.20;;;;;;5041328;28;20541;-61
2021/04/17 07:35:14;;;;;;;12.82;11.50;;;7.40;67.20;;;;;;5001134;28;20426;-60
2021/04/17 07:37:41;;;;;;;15.45;13.65;;;7.50;67.50;;;;;;5033218;28;20044;-61
2021/04/17 07:40:15;;;;;;;14.65;13.15;;;7.50;67.50;;;;;;5063572;28;20123;-61
2021/04/17 07:42:41;;;;;;;15.88;14.20;;;7.50;67.70;;;;;;5060407;28;20484;-60
2021/04/17 07:45:30;;;;;;;15.75;14.15;;;7.40;67.80;;;;;;5027663;28;20036;-60
2021/04/17 07:48:00;;;;;;;15.98;14.27;;;7.50;68.00;;;;;;5021197;28;20034;-60
2021/04/17 07:50:32;;;;;;;16.05;14.35;;;7.50;68.10;;;;;;5022847;28;20041;-60
2021/04/17 07:52:58;;;;;;;16.48;14.77;;;7.40;68.20;;;;;;5028981;28;20040;-61
2021/04/17 07:55:30;;;;;;;17.48;15.63;;;7.40;68.20;;;;;;5031952;28;20025;-60
2021/04/17 07:57:56;;;;;;;16.95;14.93;;;7.40;68.30;;;;;;5015434;28;20079;-60
2021/04/17 08:00:23;;;;;;;16.55;14.73;;;7.50;68.40;;;;;;5038332;28;20512;-61
2021/04/17 08:02:50;;;;;;;20.65;15.45;;;7.50;68.40;;;;;;5003066;28;20484;-61
2021/04/17 08:05:16;;;;;;;18.35;16.33;;;7.50;68.40;;;;;;5049059;28;20083;-60
2021/04/17 08:07:42;;;;;;;19.40;15.30;;;7.50;69.50;;;;;;5026305;28;20477;-60
2021/04/17 08:10:08;;;;;;;17.45;15.63;;;7.50;69.10;;;;;;5013699;28;20074;-61
2021/04/17 08:12:35;;;;;;;18.98;15.07;;;7.50;68.80;;;;;;5005169;28;20028;-61
2021/04/17 08:15:02;;;;;;;20.05;16.52;;;7.50;68.60;;;;;;5040632;28;20013;-61
2021/04/17 08:17:28;;;;;;;36.35;16.83;;;7.60;68.50;;;;;;5025913;28;20123;-60
2021/04/17 08:19:56;;;;;;;26.73;15.38;;;7.60;69.00;;;;;;5025780;28;20171;-60
2021/04/17 08:22:22;;;;;;;19.95;14.52;;;7.60;68.80;;;;;;5027482;28;20025;-61
2021/04/17 08:24:47;;;;;;;17.98;15.43;;;7.60;69.10;;;;;;5065973;28;20357;-60
2021/04/17 08:27:13;;;;;;;18.85;15.40;;;7.70;68.60;;;;;;5034651;28;20446;-61
2021/04/17 08:29:52;;;;;;;18.67;15.25;;;7.70;68.80;;;;;;5015737;28;20028;-61
2021/04/17 08:32:28;;;;;;;28.65;17.33;;;7.70;68.60;;;;;;5026198;28;20569;-60
2021/04/17 08:35:13;;;;;;;23.15;17.75;;;7.70;68.70;;;;;;5058027;28;20033;-60
2021/04/17 08:37:54;;;;;;;26.40;16.17;;;7.70;69.00;;;;;;5039376;28;20384;-60
2021/04/17 08:40:38;;;;;;;25.67;17.10;;;7.70;69.20;;;;;;5048524;28;20025;-60
2021/04/17 08:43:10;;;;;;;20.15;16.85;;;7.70;69.20;;;;;;5041666;28;20493;-61
2021/04/17 08:45:36;;;;;;;26.95;17.52;;;7.70;69.20;;;;;;5042493;28;20503;-60
2021/04/17 08:48:03;;;;;;;32.03;18.05;;;7.70;69.30;;;;;;5045253;28;20032;-61
2021/04/17 08:50:34;;;;;;;29.60;18.17;;;7.70;69.40;;;;;;5017293;28;20033;-60
2021/04/17 08:53:13;;;;;;;24.92;16.33;;;7.70;69.60;;;;;;5022320;28;20059;-61
2021/04/17 08:55:39;;;;;;;22.70;17.67;;;7.70;69.80;;;;;;5018040;28;20021;-60
2021/04/17 08:58:24;;;;;;;25.73;16.30;;;7.70;69.70;;;;;;5046673;28;20040;-61
2021/04/17 09:00:52;;;;;;;20.40;15.77;;;7.80;69.70;;;;;;5021078;28;20122;-61
2021/04/17 09:03:41;;;;;;;22.50;17.10;;;7.80;69.50;;;;;;5041460;28;20033;-61
2021/04/17 09:06:25;;;;;;;26.23;17.17;;;7.80;69.60;;;;;;5041837;28;20032;-60
2021/04/17 09:09:16;;;;;;;25.33;17.00;;;7.80;69.90;;;;;;5030088;28;20025;-60
2021/04/17 09:12:06;;;;;;;32.78;17.25;;;7.80;69.70;;;;;;5037961;28;20443;-60
2021/04/17 09:14:32;;;;;;;26.25;16.50;;;7.80;69.80;;;;;;5027932;28;20545;-61
2021/04/17 09:17:06;;;;;;;24.40;16.58;;;7.90;70.10;;;;;;5045143;28;20052;-61
2021/04/17 09:19:50;;;;;;;23.63;15.20;;;7.90;70.00;;;;;;5013358;28;20028;-61
2021/04/17 09:22:24;;;;;;;23.02;15.38;;;7.90;70.00;;;;;;5053202;28;20376;-61
2021/04/17 09:25:06;;;;;;;25.85;17.80;;;7.90;69.80;;;;;;5048803;28;20495;-61
2021/04/17 09:27:35;;;;;;;29.92;16.33;;;7.90;69.90;;;;;;5048780;28;20029;-61
2021/04/17 09:30:20;;;;;;;22.15;17.40;;;8.00;70.00;;;;;;5017866;28;20081;-60
2021/04/17 09:32:50;;;;;;;18.57;15.20;;;8.00;70.70;;;;;;5036227;28;20392;-60
2021/04/17 09:35:17;;;;;;;22.55;15.32;;;8.10;70.70;;;;;;5007623;28;20533;-60
2021/04/17 09:37:45;;;;;;;21.77;16.65;;;8.00;70.70;;;;;;5015205;28;20030;-60
2021/04/17 09:40:11;;;;;;;19.35;16.17;;;8.10;70.50;;;;;;5042202;28;20476;-60
2021/04/17 09:42:37;;;;;;;26.20;16.23;;;8.10;70.60;;;;;;5026471;28;20095;-60
2021/04/17 09:45:08;;;;;;;23.30;16.13;;;8.10;70.60;;;;;;5024029;28;20492;-61
2021/04/17 09:47:34;;;;;;;22.45;16.48;;;8.10;70.50;;;;;;5039016;28;20043;-60
2021/04/17 09:49:59;;;;;;;18.90;16.52;;;8.10;70.40;;;;;;5045094;28;20032;-60
2021/04/17 09:52:25;;;;;;;19.25;16.77;;;8.20;70.60;;;;;;4998980;28;20032;-60
2021/04/17 09:54:59;;;;;;;22.10;16.83;;;8.20;70.70;;;;;;5028189;28;20033;-61
2021/04/17 09:57:25;;;;;;;16.85;15.05;;;8.20;70.40;;;;;;5026255;28;20024;-60
2021/04/17 09:59:51;;;;;;;25.17;17.20;;;8.30;70.00;;;;;;5021413;28;20155;-60
2021/04/17 10:02:17;;;;;;;18.58;16.58;;;8.30;69.90;;;;;;5039659;28;20191;-60
2021/04/17 10:04:55;;;;;;;29.20;17.08;;;8.40;69.70;;;;;;5026505;28;20037;-61
2021/04/17 10:07:21;;;;;;;21.95;16.73;;;8.50;69.70;;;;;;5030309;28;20032;-61
2021/04/17 10:10:00;;;;;;;22.65;16.33;;;8.50;69.70;;;;;;5038991;28;20028;-61
2021/04/17 10:12:26;;;;;;;18.33;15.55;;;8.50;69.50;;;;;;5026814;28;20107;-60
2021/04/17 10:14:51;;;;;;;17.73;15.82;;;8.60;69.40;;;;;;5025899;28;20411;-60
2021/04/17 10:17:17;;;;;;;17.52;15.65;;;8.70;69.00;;;;;;5024645;28;20691;-61
2021/04/17 10:19:42;;;;;;;18.25;15.93;;;8.70;69.60;;;;;;5014302;28;20507;-61
2021/04/17 10:22:11;;;;;;;17.52;15.73;;;8.70;68.90;;;;;;5041059;28;20067;-62
2021/04/17 10:24:38;;;;;;;17.00;15.30;;;8.70;68.80;;;;;;5024515;28;20031;-61
2021/04/17 10:27:10;;;;;;;16.73;14.93;;;8.80;68.60;;;;;;5013120;28;20159;-61
2021/04/17 10:29:39;;;;;;;17.58;15.60;;;8.80;68.40;;;;;;5013043;28;20041;-61
2021/04/17 10:32:06;;;;;;;18.92;15.45;;;8.80;68.00;;;;;;5025731;28;20112;-61
2021/04/17 10:34:32;;;;;;;17.52;15.73;;;8.90;68.00;;;;;;5028844;28;20024;-61
2021/04/17 10:37:19;;;;;;;18.60;15.02;;;8.90;67.80;;;;;;5021081;28;20066;-61
2021/04/17 10:39:58;;;;;;;16.52;14.82;;;8.90;67.70;;;;;;5039743;28;20025;-61
2021/04/17 10:42:23;;;;;;;18.40;13.98;;;8.90;67.20;;;;;;5014478;28;20036;-61
2021/04/17 10:44:53;;;;;;;15.73;13.70;;;8.90;66.60;;;;;;5045229;28;20541;-61
2021/04/17 10:47:18;;;;;;;15.63;13.38;;;9.00;66.50;;;;;;5077449;28;20040;-60
2021/04/17 10:49:44;;;;;;;15.60;13.90;;;9.00;66.30;;;;;;5073620;28;20042;-61
2021/04/17 10:52:30;;;;;;;15.65;13.88;;;9.10;66.70;;;;;;5055287;28;20056;-61
2021/04/17 10:54:56;;;;;;;15.57;13.77;;;9.10;65.90;;;;;;5060688;28;20033;-60
2021/04/17 10:57:22;;;;;;;18.70;14.65;;;9.10;65.70;;;;;;5056223;28;20051;-60
2021/04/17 10:59:55;;;;;;;16.13;13.77;;;9.20;65.60;;;;;;5068726;28;20037;-61
2021/04/17 11:02:28;;;;;;;15.15;12.63;;;9.20;65.60;;;;;;5051909;28;20090;-61
2021/04/17 11:04:54;;;;;;;15.82;14.05;;;9.30;65.60;;;;;;5057915;28;20031;-61
2021/04/17 11:07:28;;;;;;;14.63;12.98;;;9.40;65.70;;;;;;5068996;28;20396;-60
2021/04/17 11:09:53;;;;;;;15.27;13.75;;;9.40;65.60;;;;;;5065089;28;20028;-60
2021/04/17 11:12:24;;;;;;;19.02;13.98;;;9.50;65.40;;;;;;5042733;28;20016;-61
2021/04/17 11:14:49;;;;;;;16.58;12.85;;;9.60;65.20;;;;;;5066153;28;20480;-61
2021/04/17 11:17:15;;;;;;;14.63;12.70;;;9.60;65.00;;;;;;5048631;28;20112;-60
2021/04/17 11:19:44;;;;;;;15.50;12.77;;;9.60;64.00;;;;;;5056505;28;20100;-61
2021/04/17 11:22:10;;;;;;;14.30;12.73;;;9.60;64.00;;;;;;5062136;28;20032;-60
2021/04/17 11:24:37;;;;;;;14.75;13.23;;;9.60;63.70;;;;;;5053165;28;20024;-61
2021/04/17 11:27:02;;;;;;;17.40;13.05;;;9.70;63.70;;;;;;5031520;28;20032;-61
2021/04/17 11:29:28;;;;;;;16.67;12.63;;;9.70;63.50;;;;;;5051944;28;20024;-61
2021/04/17 11:31:53;;;;;;;17.10;12.50;;;9.70;63.40;;;;;;5048401;28;20035;-61
2021/04/17 11:34:19;;;;;;;14.05;12.35;;;9.80;63.30;;;;;;5048283;28;20128;-60
2021/04/17 11:36:44;;;;;;;17.13;12.95;;;9.80;63.20;;;;;;5057785;28;20039;-61
2021/04/17 11:39:10;;;;;;;14.23;12.55;;;9.90;63.10;;;;;;5056708;28;20059;-61
2021/04/17 11:41:36;;;;;;;15.27;11.80;;;9.90;63.10;;;;;;5067050;28;20121;-60
2021/04/17 11:44:02;;;;;;;17.85;11.88;;;10.00;62.90;;;;;;5072798;28;20032;-61
2021/04/17 11:46:27;;;;;;;15.32;12.18;;;10.10;62.70;;;;;;5050784;28;20059;-60
2021/04/17 11:48:53;;;;;;;17.00;11.63;;;10.20;62.50;;;;;;5035282;28;20035;-60
2021/04/17 11:51:19;;;;;;;22.55;11.65;;;10.20;62.30;;;;;;5027844;28;20029;-60
2021/04/17 11:53:45;;;;;;;17.15;11.50;;;10.30;63.00;;;;;;5030056;28;20299;-61
2021/04/17 11:56:10;;;;;;;11.98;10.25;;;10.30;62.20;;;;;;5029627;28;20037;-61
2021/04/17 11:58:36;;;;;;;15.20;11.20;;;10.30;62.00;;;;;;5046190;28;20039;-61
2021/04/17 12:01:01;;;;;;;14.05;10.55;;;10.40;61.80;;;;;;5029020;28;20040;-60
2021/04/17 12:03:27;;;;;;;14.57;11.73;;;10.40;61.60;;;;;;5030154;28;20048;-61
2021/04/17 12:05:54;;;;;;;14.07;11.18;;;10.40;61.40;;;;;;5018449;28;20039;-61
2021/04/17 12:08:20;;;;;;;13.38;10.82;;;10.50;61.20;;;;;;5035055;28;20449;-61
2021/04/17 12:10:46;;;;;;;13.05;10.65;;;10.50;60.90;;;;;;5013309;28;20104;-60
2021/04/17 12:13:12;;;;;;;12.77;10.43;;;10.50;60.60;;;;;;5014565;28;20545;-60
2021/04/17 12:15:38;;;;;;;15.73;11.93;;;10.50;60.50;;;;;;5023951;28;20017;-61
2021/04/17 12:18:03;;;;;;;14.45;11.32;;;10.60;60.70;;;;;;5032766;28;20075;-61
2021/04/17 12:20:29;;;;;;;12.48;10.95;;;10.60;60.70;;;;;;5046877;28;20029;-61
2021/04/17 12:22:55;;;;;;;18.17;10.30;;;10.60;60.50;;;;;;5042003;28;20041;-61
2021/04/17 12:25:22;;;;;;;14.82;10.68;;;10.70;60.60;;;;;;4990458;28;20036;-61
2021/04/17 12:27:47;;;;;;;20.27;10.80;;;10.70;60.40;;;;;;5043997;28;20030;-60
2021/04/17 12:30:13;;;;;;;16.35;11.18;;;10.80;61.40;;;;;;5020818;28;20044;-60
2021/04/17 12:32:39;;;;;;;16.48;9.93;;;10.80;61.10;;;;;;5047720;28;20040;-61
2021/04/17 12:35:05;;;;;;;13.00;10.00;;;10.90;61.00;;;;;;5038832;28;20460;-61
2021/04/17 12:37:31;;;;;;;13.02;10.15;;;10.90;60.90;;;;;;5029621;28;20465;-61
2021/04/17 12:39:57;;;;;;;22.92;10.18;;;11.00;60.90;;;;;;5027039;28;20097;-60
2021/04/17 12:42:22;;;;;;;19.15;10.38;;;11.00;61.00;;;;;;5014482;28;20104;-60
2021/04/17 12:44:48;;;;;;;11.57;9.65;;;11.00;61.10;;;;;;5046849;28;20384;-60
2021/04/17 12:47:13;;;;;;;13.32;9.80;;;11.00;61.00;;;;;;5063401;28;20475;-60
2021/04/17 12:49:39;;;;;;;11.52;9.95;;;11.00;61.50;;;;;;5065565;28;20395;-61
2021/04/17 12:52:04;;;;;;;14.43;10.18;;;11.00;61.00;;;;;;5064729;28;20550;-60